sensor_id;sensor_type;location;lat;lon;timestamp;temperature;humidity
10046;DHT22;5063;50.878;4.742;2023-04-03T00:01:09;1.90;99.90
10046;DHT22;5063;50.878;4.742;2023-04-03T00:03:35;1.90;99.90
10046;DHT22;5063;50.878;4.742;2023-04-03T00:06:02;1.80;99.90
10046;DHT22;5063;50.878;4.742;2023-04-03T00:08:28;1.70;99.90
10046;DHT22;5063;50.878;4.742;2023-04-03T00:10:56;1.60;99.90
10046;DHT22;5063;50.878;4.742;2023-04-03T00:13:22;1.60;99.90
10046;DHT22;5063;50.878;4.742;2023-04-03T00:15:48;1.80;99.90
10046;DHT22;5063;50.878;4.742;2023-04-03T00:18:14;1.80;99.90
10046;DHT22;5063;50.878;4.742;2023-04-03T00:20:40;1.90;99.90
10046;DHT22;5063;50.878;4.742;2023-04-03T00:23:06;1.90;99.90
10046;DHT22;5063;50.878;4.742;2023-04-03T00:25:32;2.00;99.90
10046;DHT22;5063;50.878;4.742;2023-04-03T00:27:58;1.90;99.90
10046;DHT22;5063;50.878;4.742;2023-04-03T00:30:24;2.10;99.90
10046;DHT22;5063;50.878;4.742;2023-04-03T00:32:51;2.20;99.90
10046;DHT22;5063;50.878;4.742;2023-04-03T00:35:18;2.20;99.90
10046;DHT22;5063;50.878;4.742;2023-04-03T00:37:45;2.30;99.90
10046;DHT22;5063;50.878;4.742;2023-04-03T00:40:12;2.30;99.90
10046;DHT22;5063;50.878;4.742;2023-04-03T00:42:43;2.20;99.90
10046;DHT22;5063;50.878;4.742;2023-04-03T00:47:43;2.30;99.90
10046;DHT22;5063;50.878;4.742;2023-04-03T00:50:10;2.20;99.90
10046;DHT22;5063;50.878;4.742;2023-04-03T00:52:37;2.20;99.90
10046;DHT22;5063;50.878;4.742;2023-04-03T00:55:08;2.10;99.90
10046;DHT22;5063;50.878;4.742;2023-04-03T00:57:34;2.00;99.90
10046;DHT22;5063;50.878;4.742;2023-04-03T01:00:10;2.00;99.90
10046;DHT22;5063;50.878;4.742;2023-04-03T01:02:36;2.00;99.90
10046;DHT22;5063;50.878;4.742;2023-04-03T01:05:03;2.10;99.90
10046;DHT22;5063;50.878;4.742;2023-04-03T01:07:32;2.00;99.90
10046;DHT22;5063;50.878;4.742;2023-04-03T01:10:01;2.10;99.90
10046;DHT22;5063;50.878;4.742;2023-04-03T01:12:34;2.10;99.90
10046;DHT22;5063;50.878;4.742;2023-04-03T01:15:09;2.30;99.90
10046;DHT22;5063;50.878;4.742;2023-04-03T01:25:50;2.40;99.90
10046;DHT22;5063;50.878;4.742;2023-04-03T01:28:26;2.60;99.90
10046;DHT22;5063;50.878;4.742;2023-04-03T01:33:41;2.40;99.90
10046;DHT22;5063;50.878;4.742;2023-04-03T01:36:09;2.60;99.90
10046;DHT22;5063;50.878;4.742;2023-04-03T01:38:35;2.40;99.90
10046;DHT22;5063;50.878;4.742;2023-04-03T01:41:01;2.30;99.90
10046;DHT22;5063;50.878;4.742;2023-04-03T01:43:27;2.00;99.90
10046;DHT22;5063;50.878;4.742;2023-04-03T01:45:53;2.30;99.90
10046;DHT22;5063;50.878;4.742;2023-04-03T01:48:20;2.30;99.90
10046;DHT22;5063;50.878;4.742;2023-04-03T01:50:46;2.40;99.90
10046;DHT22;5063;50.878;4.742;2023-04-03T01:53:12;2.10;99.90
10046;DHT22;5063;50.878;4.742;2023-04-03T01:55:38;2.10;99.90
10046;DHT22;5063;50.878;4.742;2023-04-03T01:58:04;2.10;99.90
10046;DHT22;5063;50.878;4.742;2023-04-03T02:00:29;2.20;99.90
10046;DHT22;5063;50.878;4.742;2023-04-03T02:02:56;2.10;99.90
10046;DHT22;5063;50.878;4.742;2023-04-03T02:05:22;2.00;99.90
10046;DHT22;5063;50.878;4.742;2023-04-03T02:07:48;2.00;99.90
10046;DHT22;5063;50.878;4.742;2023-04-03T02:10:14;1.50;99.90
10046;DHT22;5063;50.878;4.742;2023-04-03T02:12:39;1.70;99.90
10046;DHT22;5063;50.878;4.742;2023-04-03T02:15:06;1.60;99.90
10046;DHT22;5063;50.878;4.742;2023-04-03T02:17:31;1.60;99.90
10046;DHT22;5063;50.878;4.742;2023-04-03T02:19:57;1.50;99.90
10046;DHT22;5063;50.878;4.742;2023-04-03T02:22:23;1.50;99.90
10046;DHT22;5063;50.878;4.742;2023-04-03T02:24:49;1.50;99.90
10046;DHT22;5063;50.878;4.742;2023-04-03T02:27:15;1.40;99.90
10046;DHT22;5063;50.878;4.742;2023-04-03T02:29:41;1.60;99.90
10046;DHT22;5063;50.878;4.742;2023-04-03T02:32:07;1.50;99.90
10046;DHT22;5063;50.878;4.742;2023-04-03T02:34:32;1.30;99.90
10046;DHT22;5063;50.878;4.742;2023-04-03T02:36:58;1.10;99.90
10046;DHT22;5063;50.878;4.742;2023-04-03T02:39:24;1.10;99.90
10046;DHT22;5063;50.878;4.742;2023-04-03T02:41:50;1.10;99.90
10046;DHT22;5063;50.878;4.742;2023-04-03T02:44:16;1.20;99.90
10046;DHT22;5063;50.878;4.742;2023-04-03T02:46:41;1.00;99.90
10046;DHT22;5063;50.878;4.742;2023-04-03T02:49:07;1.00;99.90
10046;DHT22;5063;50.878;4.742;2023-04-03T02:51:33;0.90;99.90
10046;DHT22;5063;50.878;4.742;2023-04-03T02:53:59;0.90;99.90
10046;DHT22;5063;50.878;4.742;2023-04-03T02:56:25;1.00;99.90
10046;DHT22;5063;50.878;4.742;2023-04-03T02:58:52;0.80;99.90
10046;DHT22;5063;50.878;4.742;2023-04-03T03:01:18;0.80;99.90
10046;DHT22;5063;50.878;4.742;2023-04-03T03:03:44;0.80;99.90
10046;DHT22;5063;50.878;4.742;2023-04-03T03:06:12;0.60;99.90
10046;DHT22;5063;50.878;4.742;2023-04-03T03:08:38;0.60;99.90
10046;DHT22;5063;50.878;4.742;2023-04-03T03:11:04;0.30;99.90
10046;DHT22;5063;50.878;4.742;2023-04-03T03:13:30;0.30;99.90
10046;DHT22;5063;50.878;4.742;2023-04-03T03:15:56;0.30;99.90
10046;DHT22;5063;50.878;4.742;2023-04-03T03:18:22;0.40;99.90
10046;DHT22;5063;50.878;4.742;2023-04-03T03:20:56;0.50;99.90
10046;DHT22;5063;50.878;4.742;2023-04-03T03:23:23;0.40;99.90
10046;DHT22;5063;50.878;4.742;2023-04-03T03:25:58;0.50;99.90
10046;DHT22;5063;50.878;4.742;2023-04-03T03:28:24;0.50;99.90
10046;DHT22;5063;50.878;4.742;2023-04-03T03:30:50;0.60;99.90
10046;DHT22;5063;50.878;4.742;2023-04-03T03:33:16;0.70;99.90
10046;DHT22;5063;50.878;4.742;2023-04-03T03:35:42;0.80;99.90
10046;DHT22;5063;50.878;4.742;2023-04-03T03:38:09;0.90;99.90
10046;DHT22;5063;50.878;4.742;2023-04-03T03:40:34;0.50;99.90
10046;DHT22;5063;50.878;4.742;2023-04-03T03:43:00;0.80;99.90
10046;DHT22;5063;50.878;4.742;2023-04-03T03:45:26;1.10;99.90
10046;DHT22;5063;50.878;4.742;2023-04-03T03:47:52;0.90;99.90
10046;DHT22;5063;50.878;4.742;2023-04-03T03:50:17;1.00;99.90
10046;DHT22;5063;50.878;4.742;2023-04-03T03:52:43;1.00;99.90
10046;DHT22;5063;50.878;4.742;2023-04-03T03:55:10;1.10;99.90
10046;DHT22;5063;50.878;4.742;2023-04-03T03:57:36;1.10;99.90
10046;DHT22;5063;50.878;4.742;2023-04-03T04:00:02;1.20;99.90
10046;DHT22;5063;50.878;4.742;2023-04-03T04:02:28;1.20;99.90
10046;DHT22;5063;50.878;4.742;2023-04-03T04:04:54;1.20;99.90
10046;DHT22;5063;50.878;4.742;2023-04-03T04:07:20;1.30;99.90
10046;DHT22;5063;50.878;4.742;2023-04-03T04:09:45;1.20;99.90
10046;DHT22;5063;50.878;4.742;2023-04-03T04:12:11;1.30;99.90
10046;DHT22;5063;50.878;4.742;2023-04-03T04:14:37;1.30;99.90
10046;DHT22;5063;50.878;4.742;2023-04-03T04:17:03;1.50;99.90
10046;DHT22;5063;50.878;4.742;2023-04-03T04:19:29;1.40;99.90
10046;DHT22;5063;50.878;4.742;2023-04-03T04:21:54;1.40;99.90
10046;DHT22;5063;50.878;4.742;2023-04-03T04:24:20;1.40;99.90
10046;DHT22;5063;50.878;4.742;2023-04-03T04:26:48;1.40;99.90
10046;DHT22;5063;50.878;4.742;2023-04-03T04:29:14;1.50;99.90
10046;DHT22;5063;50.878;4.742;2023-04-03T04:31:40;1.50;99.90
10046;DHT22;5063;50.878;4.742;2023-04-03T04:34:05;1.40;99.90
10046;DHT22;5063;50.878;4.742;2023-04-03T04:36:31;1.40;99.90
10046;DHT22;5063;50.878;4.742;2023-04-03T04:38:57;1.40;99.90
10046;DHT22;5063;50.878;4.742;2023-04-03T04:41:23;1.70;99.90
10046;DHT22;5063;50.878;4.742;2023-04-03T04:43:50;1.40;99.90
10046;DHT22;5063;50.878;4.742;2023-04-03T04:46:16;1.50;99.90
10046;DHT22;5063;50.878;4.742;2023-04-03T04:48:42;1.40;99.90
10046;DHT22;5063;50.878;4.742;2023-04-03T04:51:08;1.40;99.90
10046;DHT22;5063;50.878;4.742;2023-04-03T04:53:34;1.50;99.90
10046;DHT22;5063;50.878;4.742;2023-04-03T04:56:00;1.40;99.90
10046;DHT22;5063;50.878;4.742;2023-04-03T04:58:25;1.40;99.90
10046;DHT22;5063;50.878;4.742;2023-04-03T05:01:08;1.20;99.90
10046;DHT22;5063;50.878;4.742;2023-04-03T05:03:35;1.20;99.90
10046;DHT22;5063;50.878;4.742;2023-04-03T05:06:01;1.10;99.90
10046;DHT22;5063;50.878;4.742;2023-04-03T05:08:27;1.00;99.90
10046;DHT22;5063;50.878;4.742;2023-04-03T05:10:53;0.90;99.90
10046;DHT22;5063;50.878;4.742;2023-04-03T05:13:19;0.80;99.90
10046;DHT22;5063;50.878;4.742;2023-04-03T05:15:46;0.90;99.90
10046;DHT22;5063;50.878;4.742;2023-04-03T05:18:12;0.80;99.90
10046;DHT22;5063;50.878;4.742;2023-04-03T05:20:38;0.80;99.90
10046;DHT22;5063;50.878;4.742;2023-04-03T05:23:04;0.90;99.90
10046;DHT22;5063;50.878;4.742;2023-04-03T05:25:30;0.90;99.90
10046;DHT22;5063;50.878;4.742;2023-04-03T05:27:55;1.00;99.90
10046;DHT22;5063;50.878;4.742;2023-04-03T05:30:21;1.20;99.90
10046;DHT22;5063;50.878;4.742;2023-04-03T05:32:47;1.10;99.90
10046;DHT22;5063;50.878;4.742;2023-04-03T05:35:13;1.10;99.90
10046;DHT22;5063;50.878;4.742;2023-04-03T05:37:39;1.40;99.90
10046;DHT22;5063;50.878;4.742;2023-04-03T05:40:05;1.50;99.90
10046;DHT22;5063;50.878;4.742;2023-04-03T05:42:31;1.40;99.90
10046;DHT22;5063;50.878;4.742;2023-04-03T05:44:57;1.50;99.90
10046;DHT22;5063;50.878;4.742;2023-04-03T05:47:23;1.10;99.90
10046;DHT22;5063;50.878;4.742;2023-04-03T05:49:48;1.70;99.90
10046;DHT22;5063;50.878;4.742;2023-04-03T05:54:51;1.60;99.90
10046;DHT22;5063;50.878;4.742;2023-04-03T05:57:17;1.70;99.90
10046;DHT22;5063;50.878;4.742;2023-04-03T05:59:45;1.70;99.90
10046;DHT22;5063;50.878;4.742;2023-04-03T06:02:20;1.80;99.90
10046;DHT22;5063;50.878;4.742;2023-04-03T06:04:47;1.90;99.90
10046;DHT22;5063;50.878;4.742;2023-04-03T06:07:21;1.90;99.90
10046;DHT22;5063;50.878;4.742;2023-04-03T06:09:49;2.20;99.90
10046;DHT22;5063;50.878;4.742;2023-04-03T06:12:15;2.30;99.90
10046;DHT22;5063;50.878;4.742;2023-04-03T06:14:41;2.30;99.90
10046;DHT22;5063;50.878;4.742;2023-04-03T06:17:07;2.40;99.90
10046;DHT22;5063;50.878;4.742;2023-04-03T06:19:35;2.50;99.90
10046;DHT22;5063;50.878;4.742;2023-04-03T06:22:01;2.40;99.90
10046;DHT22;5063;50.878;4.742;2023-04-03T06:24:28;2.40;99.90
10046;DHT22;5063;50.878;4.742;2023-04-03T06:26:55;2.70;99.90
10046;DHT22;5063;50.878;4.742;2023-04-03T06:29:21;2.60;99.90
10046;DHT22;5063;50.878;4.742;2023-04-03T06:31:47;2.60;99.90
10046;DHT22;5063;50.878;4.742;2023-04-03T06:34:13;2.70;99.90
10046;DHT22;5063;50.878;4.742;2023-04-03T06:36:39;2.70;99.90
10046;DHT22;5063;50.878;4.742;2023-04-03T06:39:06;3.00;99.90
10046;DHT22;5063;50.878;4.742;2023-04-03T06:41:33;2.90;99.90
10046;DHT22;5063;50.878;4.742;2023-04-03T06:43:58;3.90;99.90
10046;DHT22;5063;50.878;4.742;2023-04-03T06:46:26;5.80;99.90
10046;DHT22;5063;50.878;4.742;2023-04-03T06:48:52;7.70;99.90
10046;DHT22;5063;50.878;4.742;2023-04-03T06:51:27;8.90;99.90
10046;DHT22;5063;50.878;4.742;2023-04-03T06:53:54;9.70;99.90
10046;DHT22;5063;50.878;4.742;2023-04-03T06:56:21;10.50;99.90
10046;DHT22;5063;50.878;4.742;2023-04-03T06:58:48;11.20;99.90
10046;DHT22;5063;50.878;4.742;2023-04-03T07:01:16;11.60;99.90
10046;DHT22;5063;50.878;4.742;2023-04-03T07:03:43;12.40;99.90
10046;DHT22;5063;50.878;4.742;2023-04-03T07:06:11;12.70;99.90
10046;DHT22;5063;50.878;4.742;2023-04-03T07:08:37;13.20;99.90
10046;DHT22;5063;50.878;4.742;2023-04-03T07:11:04;13.80;99.90
10046;DHT22;5063;50.878;4.742;2023-04-03T07:13:30;14.20;99.90
10046;DHT22;5063;50.878;4.742;2023-04-03T07:15:55;14.50;99.90
10046;DHT22;5063;50.878;4.742;2023-04-03T07:18:22;14.90;99.90
10046;DHT22;5063;50.878;4.742;2023-04-03T07:20:48;14.80;93.80
10046;DHT22;5063;50.878;4.742;2023-04-03T07:23:14;14.20;97.00
10046;DHT22;5063;50.878;4.742;2023-04-03T07:25:48;13.50;97.90
10046;DHT22;5063;50.878;4.742;2023-04-03T07:28:15;13.30;99.90
10046;DHT22;5063;50.878;4.742;2023-04-03T07:30:53;13.30;99.00
10046;DHT22;5063;50.878;4.742;2023-04-03T07:33:21;13.50;99.90
10046;DHT22;5063;50.878;4.742;2023-04-03T07:35:47;13.40;98.10
10046;DHT22;5063;50.878;4.742;2023-04-03T07:38:13;13.10;97.00
10046;DHT22;5063;50.878;4.742;2023-04-03T07:40:39;13.20;99.90
10046;DHT22;5063;50.878;4.742;2023-04-03T07:43:05;13.50;98.80
10046;DHT22;5063;50.878;4.742;2023-04-03T07:45:32;13.70;95.50
10046;DHT22;5063;50.878;4.742;2023-04-03T07:48:00;14.10;94.20
10046;DHT22;5063;50.878;4.742;2023-04-03T07:50:26;14.00;96.00
10046;DHT22;5063;50.878;4.742;2023-04-03T07:52:52;14.10;92.60
10046;DHT22;5063;50.878;4.742;2023-04-03T07:55:20;13.60;94.40
10046;DHT22;5063;50.878;4.742;2023-04-03T07:57:45;13.50;94.80
10046;DHT22;5063;50.878;4.742;2023-04-03T08:00:12;13.30;98.50
10046;DHT22;5063;50.878;4.742;2023-04-03T08:02:38;13.30;96.70
10046;DHT22;5063;50.878;4.742;2023-04-03T08:05:04;13.40;95.20
10046;DHT22;5063;50.878;4.742;2023-04-03T08:07:30;13.60;94.60
10046;DHT22;5063;50.878;4.742;2023-04-03T08:09:55;13.70;95.00
10046;DHT22;5063;50.878;4.742;2023-04-03T08:12:21;13.80;94.10
10046;DHT22;5063;50.878;4.742;2023-04-03T08:14:47;13.90;94.30
10046;DHT22;5063;50.878;4.742;2023-04-03T08:17:13;14.20;95.10
10046;DHT22;5063;50.878;4.742;2023-04-03T08:19:39;14.60;94.70
10046;DHT22;5063;50.878;4.742;2023-04-03T08:22:05;14.80;90.40
10046;DHT22;5063;50.878;4.742;2023-04-03T08:24:34;14.90;89.90
10046;DHT22;5063;50.878;4.742;2023-04-03T08:27:00;15.20;91.30
10046;DHT22;5063;50.878;4.742;2023-04-03T08:29:27;15.90;88.70
10046;DHT22;5063;50.878;4.742;2023-04-03T08:31:52;15.70;84.60
10046;DHT22;5063;50.878;4.742;2023-04-03T08:34:19;15.30;85.60
10046;DHT22;5063;50.878;4.742;2023-04-03T08:36:45;15.40;86.40
10046;DHT22;5063;50.878;4.742;2023-04-03T08:39:11;15.60;85.90
10046;DHT22;5063;50.878;4.742;2023-04-03T08:41:40;15.70;85.90
10046;DHT22;5063;50.878;4.742;2023-04-03T08:44:40;16.10;86.70
10046;DHT22;5063;50.878;4.742;2023-04-03T08:47:24;16.80;81.70
10046;DHT22;5063;50.878;4.742;2023-04-03T08:50:00;17.00;79.70
10046;DHT22;5063;50.878;4.742;2023-04-03T08:52:41;16.60;78.70
10046;DHT22;5063;50.878;4.742;2023-04-03T08:55:25;16.50;77.40
10046;DHT22;5063;50.878;4.742;2023-04-03T08:58:06;15.70;77.20
10046;DHT22;5063;50.878;4.742;2023-04-03T09:00:48;15.30;79.10
10046;DHT22;5063;50.878;4.742;2023-04-03T09:03:18;15.20;78.00
10046;DHT22;5063;50.878;4.742;2023-04-03T09:08:51;14.20;79.90
10046;DHT22;5063;50.878;4.742;2023-04-03T09:17:00;13.00;90.30
10046;DHT22;5063;50.878;4.742;2023-04-03T09:19:35;12.20;92.50
10046;DHT22;5063;50.878;4.742;2023-04-03T09:22:22;11.30;99.90
10046;DHT22;5063;50.878;4.742;2023-04-03T09:24:59;10.30;99.90
10046;DHT22;5063;50.878;4.742;2023-04-03T09:27:27;9.80;99.90
10046;DHT22;5063;50.878;4.742;2023-04-03T09:29:55;9.40;99.90
10046;DHT22;5063;50.878;4.742;2023-04-03T09:32:28;9.30;99.90
10046;DHT22;5063;50.878;4.742;2023-04-03T09:34:57;9.20;99.90
10046;DHT22;5063;50.878;4.742;2023-04-03T09:37:42;9.10;99.90
10046;DHT22;5063;50.878;4.742;2023-04-03T09:40:28;9.00;99.90
10046;DHT22;5063;50.878;4.742;2023-04-03T09:43:00;8.90;99.90
10046;DHT22;5063;50.878;4.742;2023-04-03T09:45:32;8.90;99.90
10046;DHT22;5063;50.878;4.742;2023-04-03T09:51:01;8.80;99.90
10046;DHT22;5063;50.878;4.742;2023-04-03T09:56:28;8.90;99.90
10046;DHT22;5063;50.878;4.742;2023-04-03T10:01:38;9.10;99.90
10046;DHT22;5063;50.878;4.742;2023-04-03T10:04:18;9.10;99.90
10046;DHT22;5063;50.878;4.742;2023-04-03T10:06:49;9.30;99.90
10046;DHT22;5063;50.878;4.742;2023-04-03T10:09:30;9.20;99.90
10046;DHT22;5063;50.878;4.742;2023-04-03T10:12:09;9.10;99.90
10046;DHT22;5063;50.878;4.742;2023-04-03T10:14:59;9.20;99.90
10046;DHT22;5063;50.878;4.742;2023-04-03T10:20:29;9.30;99.90
10046;DHT22;5063;50.878;4.742;2023-04-03T10:23:21;9.20;99.90
10046;DHT22;5063;50.878;4.742;2023-04-03T10:26:10;9.10;99.90
10046;DHT22;5063;50.878;4.742;2023-04-03T10:28:45;9.20;99.90
10046;DHT22;5063;50.878;4.742;2023-04-03T10:31:34;9.40;99.90
10046;DHT22;5063;50.878;4.742;2023-04-03T10:34:20;9.40;99.90
10046;DHT22;5063;50.878;4.742;2023-04-03T10:53:24;9.30;99.90
10046;DHT22;5063;50.878;4.742;2023-04-03T10:56:03;9.30;99.90
10046;DHT22;5063;50.878;4.742;2023-04-03T11:01:38;9.40;99.90
10046;DHT22;5063;50.878;4.742;2023-04-03T11:04:06;9.30;99.90
10046;DHT22;5063;50.878;4.742;2023-04-03T11:06:46;9.40;99.90
10046;DHT22;5063;50.878;4.742;2023-04-03T11:09:22;9.40;99.90
10046;DHT22;5063;50.878;4.742;2023-04-03T11:11:49;9.40;99.90
10046;DHT22;5063;50.878;4.742;2023-04-03T11:14:26;9.30;99.90
10046;DHT22;5063;50.878;4.742;2023-04-03T11:19:42;9.30;99.90
10046;DHT22;5063;50.878;4.742;2023-04-03T11:22:23;9.30;99.90
10046;DHT22;5063;50.878;4.742;2023-04-03T11:25:03;9.30;99.90
10046;DHT22;5063;50.878;4.742;2023-04-03T11:27:37;9.30;99.90
10046;DHT22;5063;50.878;4.742;2023-04-03T11:30:07;9.30;99.90
10046;DHT22;5063;50.878;4.742;2023-04-03T11:35:25;9.30;99.90
10046;DHT22;5063;50.878;4.742;2023-04-03T11:37:53;9.30;99.90
10046;DHT22;5063;50.878;4.742;2023-04-03T11:40:33;9.40;99.90
10046;DHT22;5063;50.878;4.742;2023-04-03T11:45:36;9.40;99.90
10046;DHT22;5063;50.878;4.742;2023-04-03T11:50:55;9.60;99.90
10046;DHT22;5063;50.878;4.742;2023-04-03T11:53:36;9.60;99.90
10046;DHT22;5063;50.878;4.742;2023-04-03T11:59:23;9.60;99.90
10046;DHT22;5063;50.878;4.742;2023-04-03T12:01:51;9.70;99.90
10046;DHT22;5063;50.878;4.742;2023-04-03T12:04:19;9.80;99.90
10046;DHT22;5063;50.878;4.742;2023-04-03T12:10:13;9.90;99.90
10046;DHT22;5063;50.878;4.742;2023-04-03T12:14:54;9.90;98.10
10046;DHT22;5063;50.878;4.742;2023-04-03T12:17:27;9.80;95.90
10046;DHT22;5063;50.878;4.742;2023-04-03T12:19:53;9.80;96.00
10046;DHT22;5063;50.878;4.742;2023-04-03T12:22:22;9.80;95.30
10046;DHT22;5063;50.878;4.742;2023-04-03T12:24:50;9.90;95.20
10046;DHT22;5063;50.878;4.742;2023-04-03T12:27:40;10.10;95.10
10046;DHT22;5063;50.878;4.742;2023-04-03T12:30:15;10.00;93.10
10046;DHT22;5063;50.878;4.742;2023-04-03T12:33:32;10.00;92.80
10046;DHT22;5063;50.878;4.742;2023-04-03T12:36:02;10.00;91.40
10046;DHT22;5063;50.878;4.742;2023-04-03T12:39:00;10.10;92.50
10046;DHT22;5063;50.878;4.742;2023-04-03T12:47:36;10.10;90.80
10046;DHT22;5063;50.878;4.742;2023-04-03T12:50:05;10.30;90.40
10046;DHT22;5063;50.878;4.742;2023-04-03T12:52:50;10.30;90.00
10046;DHT22;5063;50.878;4.742;2023-04-03T12:55:19;10.40;91.60
10046;DHT22;5063;50.878;4.742;2023-04-03T12:57:46;10.30;90.60
10046;DHT22;5063;50.878;4.742;2023-04-03T13:02:45;10.30;91.60
10046;DHT22;5063;50.878;4.742;2023-04-03T13:05:17;10.40;92.20
10046;DHT22;5063;50.878;4.742;2023-04-03T13:07:44;10.50;91.10
10046;DHT22;5063;50.878;4.742;2023-04-03T13:10:16;10.50;91.60
10046;DHT22;5063;50.878;4.742;2023-04-03T13:13:09;10.50;91.40
10046;DHT22;5063;50.878;4.742;2023-04-03T13:15:47;10.40;91.40
10046;DHT22;5063;50.878;4.742;2023-04-03T13:18:34;10.30;91.70
10046;DHT22;5063;50.878;4.742;2023-04-03T13:21:16;10.30;92.20
10046;DHT22;5063;50.878;4.742;2023-04-03T13:23:47;10.40;92.20
10046;DHT22;5063;50.878;4.742;2023-04-03T13:26:16;10.50;92.90
10046;DHT22;5063;50.878;4.742;2023-04-03T13:28:44;10.50;92.10
10046;DHT22;5063;50.878;4.742;2023-04-03T13:33:43;10.60;92.70
10046;DHT22;5063;50.878;4.742;2023-04-03T13:36:23;10.60;90.70
10046;DHT22;5063;50.878;4.742;2023-04-03T13:41:49;10.60;90.50
10046;DHT22;5063;50.878;4.742;2023-04-03T13:44:16;10.60;87.60
10046;DHT22;5063;50.878;4.742;2023-04-03T13:46:43;10.70;88.90
10046;DHT22;5063;50.878;4.742;2023-04-03T13:49:30;10.90;90.10
10046;DHT22;5063;50.878;4.742;2023-04-03T13:51:56;10.90;89.80
10046;DHT22;5063;50.878;4.742;2023-04-03T13:54:25;11.00;86.40
10046;DHT22;5063;50.878;4.742;2023-04-03T13:56:57;11.00;84.20
10046;DHT22;5063;50.878;4.742;2023-04-03T13:59:31;11.00;83.90
10046;DHT22;5063;50.878;4.742;2023-04-03T14:06:56;11.10;85.80
10046;DHT22;5063;50.878;4.742;2023-04-03T14:09:24;11.20;89.10
10046;DHT22;5063;50.878;4.742;2023-04-03T14:11:54;11.10;83.50
10046;DHT22;5063;50.878;4.742;2023-04-03T14:14:24;11.10;84.40
10046;DHT22;5063;50.878;4.742;2023-04-03T14:16:54;11.10;84.70
10046;DHT22;5063;50.878;4.742;2023-04-03T14:19:25;11.10;83.10
10046;DHT22;5063;50.878;4.742;2023-04-03T14:21:52;11.20;85.00
10046;DHT22;5063;50.878;4.742;2023-04-03T14:24:19;11.20;85.90
10046;DHT22;5063;50.878;4.742;2023-04-03T14:26:45;11.20;85.10
10046;DHT22;5063;50.878;4.742;2023-04-03T14:29:12;11.20;84.20
10046;DHT22;5063;50.878;4.742;2023-04-03T14:31:39;11.20;86.50
10046;DHT22;5063;50.878;4.742;2023-04-03T14:34:05;11.20;87.50
10046;DHT22;5063;50.878;4.742;2023-04-03T14:36:31;11.30;88.40
10046;DHT22;5063;50.878;4.742;2023-04-03T14:38:59;11.40;89.20
10046;DHT22;5063;50.878;4.742;2023-04-03T14:41:26;11.40;89.60
10046;DHT22;5063;50.878;4.742;2023-04-03T14:43:53;11.40;87.80
10046;DHT22;5063;50.878;4.742;2023-04-03T14:46:27;11.40;88.80
10046;DHT22;5063;50.878;4.742;2023-04-03T14:48:54;11.40;89.40
10046;DHT22;5063;50.878;4.742;2023-04-03T14:51:20;11.40;88.90
10046;DHT22;5063;50.878;4.742;2023-04-03T14:53:45;11.40;88.20
10046;DHT22;5063;50.878;4.742;2023-04-03T14:56:14;11.60;89.10
10046;DHT22;5063;50.878;4.742;2023-04-03T14:58:41;11.60;89.50
10046;DHT22;5063;50.878;4.742;2023-04-03T15:01:08;11.70;90.70
10046;DHT22;5063;50.878;4.742;2023-04-03T15:03:34;11.90;90.60
10046;DHT22;5063;50.878;4.742;2023-04-03T15:06:00;12.00;90.10
10046;DHT22;5063;50.878;4.742;2023-04-03T15:08:27;11.80;87.70
10046;DHT22;5063;50.878;4.742;2023-04-03T15:10:57;11.70;87.20
10046;DHT22;5063;50.878;4.742;2023-04-03T15:13:23;11.70;89.60
10046;DHT22;5063;50.878;4.742;2023-04-03T15:15:50;11.80;88.80
10046;DHT22;5063;50.878;4.742;2023-04-03T15:18:25;11.70;89.90
10046;DHT22;5063;50.878;4.742;2023-04-03T15:20:52;11.70;89.40
10046;DHT22;5063;50.878;4.742;2023-04-03T15:23:18;11.70;89.80
10046;DHT22;5063;50.878;4.742;2023-04-03T15:25:45;11.70;90.20
10046;DHT22;5063;50.878;4.742;2023-04-03T15:28:37;11.80;91.10
10046;DHT22;5063;50.878;4.742;2023-04-03T15:31:05;11.70;89.50
10046;DHT22;5063;50.878;4.742;2023-04-03T15:33:31;11.70;88.50
10046;DHT22;5063;50.878;4.742;2023-04-03T15:35:58;11.80;89.70
10046;DHT22;5063;50.878;4.742;2023-04-03T15:38:23;11.90;89.30
10046;DHT22;5063;50.878;4.742;2023-04-03T15:40:49;12.00;90.50
10046;DHT22;5063;50.878;4.742;2023-04-03T15:43:15;12.10;90.30
10046;DHT22;5063;50.878;4.742;2023-04-03T15:45:42;12.20;90.30
10046;DHT22;5063;50.878;4.742;2023-04-03T15:48:09;12.10;90.10
10046;DHT22;5063;50.878;4.742;2023-04-03T15:50:35;12.40;90.20
10046;DHT22;5063;50.878;4.742;2023-04-03T15:53:01;12.10;90.20
10046;DHT22;5063;50.878;4.742;2023-04-03T15:55:33;12.10;90.60
10046;DHT22;5063;50.878;4.742;2023-04-03T15:57:59;12.20;91.00
10046;DHT22;5063;50.878;4.742;2023-04-03T16:00:25;12.30;90.60
10046;DHT22;5063;50.878;4.742;2023-04-03T16:03:12;12.30;90.80
10046;DHT22;5063;50.878;4.742;2023-04-03T16:05:40;12.40;90.40
10046;DHT22;5063;50.878;4.742;2023-04-03T16:08:06;12.50;89.60
10046;DHT22;5063;50.878;4.742;2023-04-03T16:10:36;12.50;88.90
10046;DHT22;5063;50.878;4.742;2023-04-03T16:13:03;12.40;89.80
10046;DHT22;5063;50.878;4.742;2023-04-03T16:15:29;12.50;90.50
10046;DHT22;5063;50.878;4.742;2023-04-03T16:17:57;12.40;89.20
10046;DHT22;5063;50.878;4.742;2023-04-03T16:20:24;12.50;90.50
10046;DHT22;5063;50.878;4.742;2023-04-03T16:22:50;12.70;90.10
10046;DHT22;5063;50.878;4.742;2023-04-03T16:25:17;12.80;89.50
10046;DHT22;5063;50.878;4.742;2023-04-03T16:27:43;12.80;88.80
10046;DHT22;5063;50.878;4.742;2023-04-03T16:30:09;12.70;88.90
10046;DHT22;5063;50.878;4.742;2023-04-03T16:32:37;12.60;89.10
10046;DHT22;5063;50.878;4.742;2023-04-03T16:35:04;12.60;89.80
10046;DHT22;5063;50.878;4.742;2023-04-03T16:37:30;12.60;90.40
10046;DHT22;5063;50.878;4.742;2023-04-03T16:39:56;12.70;89.60
10046;DHT22;5063;50.878;4.742;2023-04-03T16:42:24;12.80;91.30
10046;DHT22;5063;50.878;4.742;2023-04-03T16:44:50;12.90;89.10
10046;DHT22;5063;50.878;4.742;2023-04-03T16:47:16;13.10;89.90
10046;DHT22;5063;50.878;4.742;2023-04-03T16:49:45;13.10;87.90
10046;DHT22;5063;50.878;4.742;2023-04-03T16:52:10;12.70;87.10
10046;DHT22;5063;50.878;4.742;2023-04-03T16:54:36;12.50;87.40
10046;DHT22;5063;50.878;4.742;2023-04-03T16:57:02;12.30;86.60
10046;DHT22;5063;50.878;4.742;2023-04-03T16:59:28;12.20;87.60
10046;DHT22;5063;50.878;4.742;2023-04-03T17:01:53;12.30;88.10
10046;DHT22;5063;50.878;4.742;2023-04-03T17:04:19;12.10;87.50
10046;DHT22;5063;50.878;4.742;2023-04-03T17:06:45;11.90;87.70
10046;DHT22;5063;50.878;4.742;2023-04-03T17:09:11;11.90;89.10
10046;DHT22;5063;50.878;4.742;2023-04-03T17:11:37;11.90;89.00
10046;DHT22;5063;50.878;4.742;2023-04-03T17:14:04;11.80;90.00
10046;DHT22;5063;50.878;4.742;2023-04-03T17:16:31;11.70;90.10
10046;DHT22;5063;50.878;4.742;2023-04-03T17:18:58;11.70;90.10
10046;DHT22;5063;50.878;4.742;2023-04-03T17:21:24;11.60;90.50
10046;DHT22;5063;50.878;4.742;2023-04-03T17:23:54;11.50;90.60
10046;DHT22;5063;50.878;4.742;2023-04-03T17:26:23;11.50;90.10
10046;DHT22;5063;50.878;4.742;2023-04-03T17:28:51;11.40;90.50
10046;DHT22;5063;50.878;4.742;2023-04-03T17:31:17;11.30;90.30
10046;DHT22;5063;50.878;4.742;2023-04-03T17:33:43;11.00;90.00
10046;DHT22;5063;50.878;4.742;2023-04-03T17:36:08;10.50;90.40
10046;DHT22;5063;50.878;4.742;2023-04-03T17:38:34;10.10;90.40
10046;DHT22;5063;50.878;4.742;2023-04-03T17:41:03;9.80;91.50